sensor_id;sensor_type;location;lat;lon;timestamp;temperature;humidity
38902;DHT22;24661;53.566;9.910;2022-08-04T00:00:05;20.90;99.90
38902;DHT22;24661;53.566;9.910;2022-08-04T00:10:53;20.80;99.90
38902;DHT22;24661;53.566;9.910;2022-08-04T00:13:23;20.80;99.90
38902;DHT22;24661;53.566;9.910;2022-08-04T00:16:05;20.80;99.90
38902;DHT22;24661;53.566;9.910;2022-08-04T00:18:57;20.80;99.90
38902;DHT22;24661;53.566;9.910;2022-08-04T00:21:25;20.70;99.90
38902;DHT22;24661;53.566;9.910;2022-08-04T00:23:53;20.70;99.90
38902;DHT22;24661;53.566;9.910;2022-08-04T00:26:19;20.70;99.90
38902;DHT22;24661;53.566;9.910;2022-08-04T00:28:47;20.70;99.90
38902;DHT22;24661;53.566;9.910;2022-08-04T00:31:14;20.70;99.90
38902;DHT22;24661;53.566;9.910;2022-08-04T00:33:45;20.60;99.90
38902;DHT22;24661;53.566;9.910;2022-08-04T00:36:12;20.60;99.90
38902;DHT22;24661;53.566;9.910;2022-08-04T00:38:41;20.60;99.90
38902;DHT22;24661;53.566;9.910;2022-08-04T00:41:34;20.70;99.90
38902;DHT22;24661;53.566;9.910;2022-08-04T00:52:40;20.60;99.90
38902;DHT22;24661;53.566;9.910;2022-08-04T00:55:26;20.60;99.90
38902;DHT22;24661;53.566;9.910;2022-08-04T00:58:32;20.60;99.90
38902;DHT22;24661;53.566;9.910;2022-08-04T01:01:08;20.60;99.90
38902;DHT22;24661;53.566;9.910;2022-08-04T01:03:48;20.60;99.90
38902;DHT22;24661;53.566;9.910;2022-08-04T01:06:28;20.60;99.90
38902;DHT22;24661;53.566;9.910;2022-08-04T01:09:25;20.50;99.90
38902;DHT22;24661;53.566;9.910;2022-08-04T01:17:25;20.40;99.90
38902;DHT22;24661;53.566;9.910;2022-08-04T01:20:08;20.40;99.90
38902;DHT22;24661;53.566;9.910;2022-08-04T01:30:56;20.30;99.90
38902;DHT22;24661;53.566;9.910;2022-08-04T01:33:25;20.30;99.90
38902;DHT22;24661;53.566;9.910;2022-08-04T01:35:55;20.20;99.90
38902;DHT22;24661;53.566;9.910;2022-08-04T01:40:55;20.20;99.90
38902;DHT22;24661;53.566;9.910;2022-08-04T01:43:22;20.20;99.90
38902;DHT22;24661;53.566;9.910;2022-08-04T01:45:55;20.10;99.90
38902;DHT22;24661;53.566;9.910;2022-08-04T01:48:24;20.10;99.90
38902;DHT22;24661;53.566;9.910;2022-08-04T01:50:52;20.10;99.90
38902;DHT22;24661;53.566;9.910;2022-08-04T01:53:19;20.10;99.90
38902;DHT22;24661;53.566;9.910;2022-08-04T01:55:50;20.10;99.90
38902;DHT22;24661;53.566;9.910;2022-08-04T01:58:19;20.10;99.90
38902;DHT22;24661;53.566;9.910;2022-08-04T02:01:01;20.20;99.90
38902;DHT22;24661;53.566;9.910;2022-08-04T02:03:28;20.10;99.90
38902;DHT22;24661;53.566;9.910;2022-08-04T02:06:01;20.10;99.90
38902;DHT22;24661;53.566;9.910;2022-08-04T02:08:46;20.00;99.90
38902;DHT22;24661;53.566;9.910;2022-08-04T02:11:16;20.00;99.90
38902;DHT22;24661;53.566;9.910;2022-08-04T02:13:49;19.90;99.90
38902;DHT22;24661;53.566;9.910;2022-08-04T02:16:31;19.90;99.90
38902;DHT22;24661;53.566;9.910;2022-08-04T02:22:07;19.90;99.90
38902;DHT22;24661;53.566;9.910;2022-08-04T02:24:41;19.90;99.90
38902;DHT22;24661;53.566;9.910;2022-08-04T02:27:09;19.90;99.90
38902;DHT22;24661;53.566;9.910;2022-08-04T02:29:43;19.80;99.90
38902;DHT22;24661;53.566;9.910;2022-08-04T02:32:25;19.90;99.90
38902;DHT22;24661;53.566;9.910;2022-08-04T02:37:24;19.90;99.90
38902;DHT22;24661;53.566;9.910;2022-08-04T02:39:52;19.40;99.90
38902;DHT22;24661;53.566;9.910;2022-08-04T02:42:18;19.80;99.90
38902;DHT22;24661;53.566;9.910;2022-08-04T02:44:49;19.70;99.90
38902;DHT22;24661;53.566;9.910;2022-08-04T02:47:18;19.70;99.90
38902;DHT22;24661;53.566;9.910;2022-08-04T02:49:44;19.70;99.90
38902;DHT22;24661;53.566;9.910;2022-08-04T02:52:11;19.80;99.90
38902;DHT22;24661;53.566;9.910;2022-08-04T02:54:40;19.60;99.90
38902;DHT22;24661;53.566;9.910;2022-08-04T02:57:17;19.70;99.90
38902;DHT22;24661;53.566;9.910;2022-08-04T03:00:04;19.60;99.90
38902;DHT22;24661;53.566;9.910;2022-08-04T03:03:01;19.60;99.90
38902;DHT22;24661;53.566;9.910;2022-08-04T03:05:38;19.60;99.90
38902;DHT22;24661;53.566;9.910;2022-08-04T03:11:03;19.60;99.90
38902;DHT22;24661;53.566;9.910;2022-08-04T03:16:57;19.50;99.90
38902;DHT22;24661;53.566;9.910;2022-08-04T03:31:27;19.40;99.90
38902;DHT22;24661;53.566;9.910;2022-08-04T03:47:37;19.30;99.90
38902;DHT22;24661;53.566;9.910;2022-08-04T03:50:22;19.20;99.90
38902;DHT22;24661;53.566;9.910;2022-08-04T03:55:56;19.20;99.90
38902;DHT22;24661;53.566;9.910;2022-08-04T04:01:34;19.10;99.90
38902;DHT22;24661;53.566;9.910;2022-08-04T04:06:58;19.10;99.90
38902;DHT22;24661;53.566;9.910;2022-08-04T04:09:55;19.10;99.90
38902;DHT22;24661;53.566;9.910;2022-08-04T04:20:24;19.10;99.90
38902;DHT22;24661;53.566;9.910;2022-08-04T04:22:53;19.10;99.90
38902;DHT22;24661;53.566;9.910;2022-08-04T04:28:48;19.20;99.90
38902;DHT22;24661;53.566;9.910;2022-08-04T04:31:31;19.30;99.90
38902;DHT22;24661;53.566;9.910;2022-08-04T04:37:33;19.40;99.90
38902;DHT22;24661;53.566;9.910;2022-08-04T04:45:56;19.80;99.90
38902;DHT22;24661;53.566;9.910;2022-08-04T04:49:00;19.90;99.90
38902;DHT22;24661;53.566;9.910;2022-08-04T04:53:44;20.40;99.90
38902;DHT22;24661;53.566;9.910;2022-08-04T04:59:02;20.70;99.90
38902;DHT22;24661;53.566;9.910;2022-08-04T05:04:40;21.00;99.90
38902;DHT22;24661;53.566;9.910;2022-08-04T05:15:29;21.30;99.90
38902;DHT22;24661;53.566;9.910;2022-08-04T05:17:57;21.40;99.90
38902;DHT22;24661;53.566;9.910;2022-08-04T05:20:28;21.40;99.90
38902;DHT22;24661;53.566;9.910;2022-08-04T05:23:12;21.50;99.90
38902;DHT22;24661;53.566;9.910;2022-08-04T05:25:50;21.60;99.90
38902;DHT22;24661;53.566;9.910;2022-08-04T05:28:22;21.70;99.90
38902;DHT22;24661;53.566;9.910;2022-08-04T05:30:52;21.80;99.90
38902;DHT22;24661;53.566;9.910;2022-08-04T05:33:38;21.70;99.90
38902;DHT22;24661;53.566;9.910;2022-08-04T05:36:09;21.80;99.90
38902;DHT22;24661;53.566;9.910;2022-08-04T05:38:41;21.70;99.90
38902;DHT22;24661;53.566;9.910;2022-08-04T05:41:08;22.10;99.90
38902;DHT22;24661;53.566;9.910;2022-08-04T05:43:37;22.10;99.90
38902;DHT22;24661;53.566;9.910;2022-08-04T05:46:07;22.20;99.90
38902;DHT22;24661;53.566;9.910;2022-08-04T05:48:34;22.30;99.90
38902;DHT22;24661;53.566;9.910;2022-08-04T05:51:00;22.40;99.90
38902;DHT22;24661;53.566;9.910;2022-08-04T05:53:28;22.30;99.90
38902;DHT22;24661;53.566;9.910;2022-08-04T05:55:54;22.50;99.90
38902;DHT22;24661;53.566;9.910;2022-08-04T05:58:20;22.50;99.90
38902;DHT22;24661;53.566;9.910;2022-08-04T06:00:47;22.60;99.90
38902;DHT22;24661;53.566;9.910;2022-08-04T06:03:14;22.70;99.90
38902;DHT22;24661;53.566;9.910;2022-08-04T06:05:41;22.80;99.90
38902;DHT22;24661;53.566;9.910;2022-08-04T06:08:09;22.80;99.90
38902;DHT22;24661;53.566;9.910;2022-08-04T06:10:36;22.80;99.90
38902;DHT22;24661;53.566;9.910;2022-08-04T06:13:08;22.90;99.90
38902;DHT22;24661;53.566;9.910;2022-08-04T06:15:37;22.90;99.90
38902;DHT22;24661;53.566;9.910;2022-08-04T06:18:05;22.90;99.90
38902;DHT22;24661;53.566;9.910;2022-08-04T06:20:34;22.90;99.90
38902;DHT22;24661;53.566;9.910;2022-08-04T06:23:06;22.90;99.90
38902;DHT22;24661;53.566;9.910;2022-08-04T06:25:37;22.90;99.90
38902;DHT22;24661;53.566;9.910;2022-08-04T06:28:07;22.90;99.90
38902;DHT22;24661;53.566;9.910;2022-08-04T06:30:35;23.00;99.90
38902;DHT22;24661;53.566;9.910;2022-08-04T06:33:01;23.10;99.90
38902;DHT22;24661;53.566;9.910;2022-08-04T06:35:38;23.10;99.90
38902;DHT22;24661;53.566;9.910;2022-08-04T06:38:05;23.20;99.90
38902;DHT22;24661;53.566;9.910;2022-08-04T06:40:32;23.20;99.90
38902;DHT22;24661;53.566;9.910;2022-08-04T06:43:00;23.30;99.90
38902;DHT22;24661;53.566;9.910;2022-08-04T06:45:26;23.40;99.90
38902;DHT22;24661;53.566;9.910;2022-08-04T06:47:53;23.40;99.90
38902;DHT22;24661;53.566;9.910;2022-08-04T06:50:19;23.60;99.90
38902;DHT22;24661;53.566;9.910;2022-08-04T06:52:45;23.60;99.90
38902;DHT22;24661;53.566;9.910;2022-08-04T06:55:11;23.70;99.90
38902;DHT22;24661;53.566;9.910;2022-08-04T06:57:39;23.80;99.90
38902;DHT22;24661;53.566;9.910;2022-08-04T07:00:10;23.90;99.90
38902;DHT22;24661;53.566;9.910;2022-08-04T07:02:51;23.90;99.90
38902;DHT22;24661;53.566;9.910;2022-08-04T07:05:18;24.00;99.90
38902;DHT22;24661;53.566;9.910;2022-08-04T07:07:44;24.10;99.90
38902;DHT22;24661;53.566;9.910;2022-08-04T07:10:10;24.20;99.90
38902;DHT22;24661;53.566;9.910;2022-08-04T07:12:37;24.20;99.90
38902;DHT22;24661;53.566;9.910;2022-08-04T07:15:04;24.40;99.90
38902;DHT22;24661;53.566;9.910;2022-08-04T07:17:30;24.50;99.90
38902;DHT22;24661;53.566;9.910;2022-08-04T07:19:56;24.70;99.90
38902;DHT22;24661;53.566;9.910;2022-08-04T07:22:24;24.80;99.90
38902;DHT22;24661;53.566;9.910;2022-08-04T07:24:54;24.80;99.90
38902;DHT22;24661;53.566;9.910;2022-08-04T07:27:21;25.00;99.90
38902;DHT22;24661;53.566;9.910;2022-08-04T07:29:47;25.20;99.90
38902;DHT22;24661;53.566;9.910;2022-08-04T07:32:13;25.40;99.90
38902;DHT22;24661;53.566;9.910;2022-08-04T07:34:40;25.40;99.90
38902;DHT22;24661;53.566;9.910;2022-08-04T07:37:06;25.50;99.90
38902;DHT22;24661;53.566;9.910;2022-08-04T07:39:32;25.60;99.90
38902;DHT22;24661;53.566;9.910;2022-08-04T07:42:02;25.70;99.90
38902;DHT22;24661;53.566;9.910;2022-08-04T07:44:29;25.90;99.90
38902;DHT22;24661;53.566;9.910;2022-08-04T07:46:55;26.00;99.90
38902;DHT22;24661;53.566;9.910;2022-08-04T07:49:21;26.00;99.90
38902;DHT22;24661;53.566;9.910;2022-08-04T07:51:49;26.10;99.90
38902;DHT22;24661;53.566;9.910;2022-08-04T07:54:16;26.10;99.90
38902;DHT22;24661;53.566;9.910;2022-08-04T07:56:42;26.20;99.90
38902;DHT22;24661;53.566;9.910;2022-08-04T07:59:09;26.20;99.90
38902;DHT22;24661;53.566;9.910;2022-08-04T08:01:35;26.40;99.90
38902;DHT22;24661;53.566;9.910;2022-08-04T08:04:04;26.50;99.90
38902;DHT22;24661;53.566;9.910;2022-08-04T08:06:33;26.70;99.90
38902;DHT22;24661;53.566;9.910;2022-08-04T08:09:00;26.70;99.90
38902;DHT22;24661;53.566;9.910;2022-08-04T08:11:26;27.00;99.90
38902;DHT22;24661;53.566;9.910;2022-08-04T08:13:52;27.00;99.90
38902;DHT22;24661;53.566;9.910;2022-08-04T08:16:18;27.10;99.90
38902;DHT22;24661;53.566;9.910;2022-08-04T08:18:46;27.10;99.90
38902;DHT22;24661;53.566;9.910;2022-08-04T08:21:12;27.30;99.90
38902;DHT22;24661;53.566;9.910;2022-08-04T08:23:38;27.50;99.90
38902;DHT22;24661;53.566;9.910;2022-08-04T08:26:05;27.60;99.90
38902;DHT22;24661;53.566;9.910;2022-08-04T08:28:31;27.80;99.90
38902;DHT22;24661;53.566;9.910;2022-08-04T08:30:56;27.90;99.90
38902;DHT22;24661;53.566;9.910;2022-08-04T08:33:23;28.10;99.90
38902;DHT22;24661;53.566;9.910;2022-08-04T08:36:06;28.30;99.90
38902;DHT22;24661;53.566;9.910;2022-08-04T08:38:48;28.50;99.90
38902;DHT22;24661;53.566;9.910;2022-08-04T08:41:34;28.70;99.90
38902;DHT22;24661;53.566;9.910;2022-08-04T08:52:20;28.70;99.90
38902;DHT22;24661;53.566;9.910;2022-08-04T08:55:00;28.70;99.90
38902;DHT22;24661;53.566;9.910;2022-08-04T09:00:24;29.00;99.90
38902;DHT22;24661;53.566;9.910;2022-08-04T09:06:24;29.30;99.90
38902;DHT22;24661;53.566;9.910;2022-08-04T09:12:00;29.80;99.90
38902;DHT22;24661;53.566;9.910;2022-08-04T09:14:49;29.80;99.90
38902;DHT22;24661;53.566;9.910;2022-08-04T09:17:38;29.90;99.90
38902;DHT22;24661;53.566;9.910;2022-08-04T09:20:13;29.90;99.90
38902;DHT22;24661;53.566;9.910;2022-08-04T09:25:33;30.20;99.90
38902;DHT22;24661;53.566;9.910;2022-08-04T09:28:24;30.20;99.90
38902;DHT22;24661;53.566;9.910;2022-08-04T09:31:06;30.30;99.90
38902;DHT22;24661;53.566;9.910;2022-08-04T09:33:44;30.50;99.90
38902;DHT22;24661;53.566;9.910;2022-08-04T09:39:01;30.70;99.90
38902;DHT22;24661;53.566;9.910;2022-08-04T09:41:37;30.80;99.90
38902;DHT22;24661;53.566;9.910;2022-08-04T09:44:32;31.00;99.90
38902;DHT22;24661;53.566;9.910;2022-08-04T09:47:16;31.20;99.90
38902;DHT22;24661;53.566;9.910;2022-08-04T09:49:49;31.20;99.90
38902;DHT22;24661;53.566;9.910;2022-08-04T09:52:31;31.30;99.90
38902;DHT22;24661;53.566;9.910;2022-08-04T09:55:30;31.20;99.90
38902;DHT22;24661;53.566;9.910;2022-08-04T09:58:10;31.40;99.90
38902;DHT22;24661;53.566;9.910;2022-08-04T10:00:44;31.30;99.90
38902;DHT22;24661;53.566;9.910;2022-08-04T10:03:13;31.30;99.90
38902;DHT22;24661;53.566;9.910;2022-08-04T10:19:26;31.80;99.90
38902;DHT22;24661;53.566;9.910;2022-08-04T10:27:51;32.10;99.90
38902;DHT22;24661;53.566;9.910;2022-08-04T10:30:19;32.00;99.90
38902;DHT22;24661;53.566;9.910;2022-08-04T10:32:52;32.00;99.90
38902;DHT22;24661;53.566;9.910;2022-08-04T10:35:25;32.20;99.90
38902;DHT22;24661;53.566;9.910;2022-08-04T10:38:11;32.20;99.90
38902;DHT22;24661;53.566;9.910;2022-08-04T10:40:44;32.30;99.90
38902;DHT22;24661;53.566;9.910;2022-08-04T10:43:23;32.40;99.90
38902;DHT22;24661;53.566;9.910;2022-08-04T10:46:06;32.60;99.90
38902;DHT22;24661;53.566;9.910;2022-08-04T10:51:37;32.70;99.90
38902;DHT22;24661;53.566;9.910;2022-08-04T10:54:11;32.60;99.90
38902;DHT22;24661;53.566;9.910;2022-08-04T10:56:41;32.50;99.90
38902;DHT22;24661;53.566;9.910;2022-08-04T10:59:15;32.60;99.90
38902;DHT22;24661;53.566;9.910;2022-08-04T11:01:45;32.80;99.90
38902;DHT22;24661;53.566;9.910;2022-08-04T11:06:46;33.00;99.90
38902;DHT22;24661;53.566;9.910;2022-08-04T11:09:12;33.10;99.90
38902;DHT22;24661;53.566;9.910;2022-08-04T11:11:44;33.30;99.90
38902;DHT22;24661;53.566;9.910;2022-08-04T11:14:15;33.40;99.90
38902;DHT22;24661;53.566;9.910;2022-08-04T11:16:51;33.20;99.90
38902;DHT22;24661;53.566;9.910;2022-08-04T11:21:55;33.20;99.90
38902;DHT22;24661;53.566;9.910;2022-08-04T11:24:25;33.30;99.90
38902;DHT22;24661;53.566;9.910;2022-08-04T11:27:00;33.50;99.90
38902;DHT22;24661;53.566;9.910;2022-08-04T11:31:58;33.60;99.90
38902;DHT22;24661;53.566;9.910;2022-08-04T11:34:26;33.70;99.90
38902;DHT22;24661;53.566;9.910;2022-08-04T11:37:15;33.90;99.10
38902;DHT22;24661;53.566;9.910;2022-08-04T11:39:44;35.50;98.80
38902;DHT22;24661;53.566;9.910;2022-08-04T11:44:49;34.30;98.00
38902;DHT22;24661;53.566;9.910;2022-08-04T11:51:12;34.50;95.10
38902;DHT22;24661;53.566;9.910;2022-08-04T11:53:08;34.50;94.60
38902;DHT22;24661;53.566;9.910;2022-08-04T11:55:36;34.40;95.00
38902;DHT22;24661;53.566;9.910;2022-08-04T11:58:03;34.30;95.20
38902;DHT22;24661;53.566;9.910;2022-08-04T12:00:30;34.30;95.10
38902;DHT22;24661;53.566;9.910;2022-08-04T12:17:28;34.40;92.30
38902;DHT22;24661;53.566;9.910;2022-08-04T12:20:00;34.40;91.20
38902;DHT22;24661;53.566;9.910;2022-08-04T12:22:30;34.20;90.30
38902;DHT22;24661;53.566;9.910;2022-08-04T12:25:07;34.00;91.70
38902;DHT22;24661;53.566;9.910;2022-08-04T12:27:54;33.90;91.60
38902;DHT22;24661;53.566;9.910;2022-08-04T12:30:22;34.00;91.10
38902;DHT22;24661;53.566;9.910;2022-08-04T12:33:03;34.00;91.30
38902;DHT22;24661;53.566;9.910;2022-08-04T12:35:38;34.20;91.20
38902;DHT22;24661;53.566;9.910;2022-08-04T12:38:06;34.30;91.50
38902;DHT22;24661;53.566;9.910;2022-08-04T12:40:45;34.50;90.80
38902;DHT22;24661;53.566;9.910;2022-08-04T12:46:08;34.60;90.90
38902;DHT22;24661;53.566;9.910;2022-08-04T12:48:36;34.70;91.00
38902;DHT22;24661;53.566;9.910;2022-08-04T12:51:03;34.70;90.10
38902;DHT22;24661;53.566;9.910;2022-08-04T12:53:32;34.80;90.20
38902;DHT22;24661;53.566;9.910;2022-08-04T12:55:59;34.80;90.60
38902;DHT22;24661;53.566;9.910;2022-08-04T12:58:27;35.80;91.60
38902;DHT22;24661;53.566;9.910;2022-08-04T13:00:57;34.60;91.00
38902;DHT22;24661;53.566;9.910;2022-08-04T13:03:33;34.50;90.60
38902;DHT22;24661;53.566;9.910;2022-08-04T13:06:01;34.40;90.50
38902;DHT22;24661;53.566;9.910;2022-08-04T13:08:27;34.50;90.80
38902;DHT22;24661;53.566;9.910;2022-08-04T13:10:56;34.50;90.50
38902;DHT22;24661;53.566;9.910;2022-08-04T13:13:28;34.60;90.30
38902;DHT22;24661;53.566;9.910;2022-08-04T13:16:04;34.60;90.90
38902;DHT22;24661;53.566;9.910;2022-08-04T13:18:33;34.50;90.70
38902;DHT22;24661;53.566;9.910;2022-08-04T13:21:10;34.40;90.10
38902;DHT22;24661;53.566;9.910;2022-08-04T13:23:37;34.30;89.70
38902;DHT22;24661;53.566;9.910;2022-08-04T13:26:04;34.30;90.10
38902;DHT22;24661;53.566;9.910;2022-08-04T13:28:32;34.30;89.80
38902;DHT22;24661;53.566;9.910;2022-08-04T13:31:05;34.30;90.40
38902;DHT22;24661;53.566;9.910;2022-08-04T13:33:34;34.40;90.40
38902;DHT22;24661;53.566;9.910;2022-08-04T13:36:00;34.60;90.10
38902;DHT22;24661;53.566;9.910;2022-08-04T13:38:27;34.60;89.40
38902;DHT22;24661;53.566;9.910;2022-08-04T13:41:01;34.70;90.20
38902;DHT22;24661;53.566;9.910;2022-08-04T13:43:49;34.80;90.10
38902;DHT22;24661;53.566;9.910;2022-08-04T13:46:21;34.90;87.30
38902;DHT22;24661;53.566;9.910;2022-08-04T13:48:48;34.90;89.40
38902;DHT22;24661;53.566;9.910;2022-08-04T13:51:17;34.70;89.10
38902;DHT22;24661;53.566;9.910;2022-08-04T13:53:54;34.60;89.10
38902;DHT22;24661;53.566;9.910;2022-08-04T13:56:21;34.40;88.60
38902;DHT22;24661;53.566;9.910;2022-08-04T13:58:48;34.30;89.50
38902;DHT22;24661;53.566;9.910;2022-08-04T14:01:22;34.10;89.70
38902;DHT22;24661;53.566;9.910;2022-08-04T14:08:57;34.40;90.00
38902;DHT22;24661;53.566;9.910;2022-08-04T14:11:40;34.40;88.70
38902;DHT22;24661;53.566;9.910;2022-08-04T14:19:21;34.50;90.20
38902;DHT22;24661;53.566;9.910;2022-08-04T14:21:47;34.50;90.00
38902;DHT22;24661;53.566;9.910;2022-08-04T14:24:25;34.50;90.00
38902;DHT22;24661;53.566;9.910;2022-08-04T14:26:52;34.60;90.00
38902;DHT22;24661;53.566;9.910;2022-08-04T14:29:23;34.60;89.50
38902;DHT22;24661;53.566;9.910;2022-08-04T14:31:49;34.50;87.80
38902;DHT22;24661;53.566;9.910;2022-08-04T14:34:28;34.40;89.10
38902;DHT22;24661;53.566;9.910;2022-08-04T14:36:55;34.30;88.30
38902;DHT22;24661;53.566;9.910;2022-08-04T14:39:37;33.90;92.30
38902;DHT22;24661;53.566;9.910;2022-08-04T14:42:04;33.40;94.10
38902;DHT22;24661;53.566;9.910;2022-08-04T14:44:30;33.00;95.50
38902;DHT22;24661;53.566;9.910;2022-08-04T14:46:56;32.60;97.80
38902;DHT22;24661;53.566;9.910;2022-08-04T14:49:24;32.00;99.40
38902;DHT22;24661;53.566;9.910;2022-08-04T14:51:52;31.80;99.90
38902;DHT22;24661;53.566;9.910;2022-08-04T14:54:29;31.30;99.90
38902;DHT22;24661;53.566;9.910;2022-08-04T14:57:01;31.00;99.90
38902;DHT22;24661;53.566;9.910;2022-08-04T14:59:43;30.60;99.90
38902;DHT22;24661;53.566;9.910;2022-08-04T15:02:13;30.40;99.90
38902;DHT22;24661;53.566;9.910;2022-08-04T15:04:41;30.10;99.90
38902;DHT22;24661;53.566;9.910;2022-08-04T15:07:08;29.90;99.90
38902;DHT22;24661;53.566;9.910;2022-08-04T15:09:34;29.70;99.90
38902;DHT22;24661;53.566;9.910;2022-08-04T15:12:01;29.50;99.90
38902;DHT22;24661;53.566;9.910;2022-08-04T15:14:29;29.20;99.90
38902;DHT22;24661;53.566;9.910;2022-08-04T15:16:54;29.10;99.90
38902;DHT22;24661;53.566;9.910;2022-08-04T15:19:21;28.90;99.90
38902;DHT22;24661;53.566;9.910;2022-08-04T15:21:47;28.70;99.90
38902;DHT22;24661;53.566;9.910;2022-08-04T15:24:13;28.60;99.90
38902;DHT22;24661;53.566;9.910;2022-08-04T15:26:48;28.50;99.90
38902;DHT22;24661;53.566;9.910;2022-08-04T15:29:22;28.30;99.90
38902;DHT22;24661;53.566;9.910;2022-08-04T15:31:53;28.10;99.90
38902;DHT22;24661;53.566;9.910;2022-08-04T15:34:20;27.90;99.90
38902;DHT22;24661;53.566;9.910;2022-08-04T15:36:54;27.80;99.90
38902;DHT22;24661;53.566;9.910;2022-08-04T15:39:42;27.60;99.90
38902;DHT22;24661;53.566;9.910;2022-08-04T15:45:19;27.10;99.90
38902;DHT22;24661;53.566;9.910;2022-08-04T15:50:31;26.70;99.90
38902;DHT22;24661;53.566;9.910;2022-08-04T15:55:36;26.00;99.90
38902;DHT22;24661;53.566;9.910;2022-08-04T15:58:10;26.00;99.90
38902;DHT22;24661;53.566;9.910;2022-08-04T16:05:59;25.00;99.90
38902;DHT22;24661;53.566;9.910;2022-08-04T16:08:25;24.60;99.90
38902;DHT22;24661;53.566;9.910;2022-08-04T16:10:52;24.20;99.90
38902;DHT22;24661;53.566;9.910;2022-08-04T16:13:22;24.00;99.90
38902;DHT22;24661;53.566;9.910;2022-08-04T16:15:54;23.90;99.90
38902;DHT22;24661;53.566;9.910;2022-08-04T16:20:57;23.70;99.90
38902;DHT22;24661;53.566;9.910;2022-08-04T16:23:46;23.70;99.90
38902;DHT22;24661;53.566;9.910;2022-08-04T16:29:28;23.60;99.90
38902;DHT22;24661;53.566;9.910;2022-08-04T16:34:32;23.30;99.90
38902;DHT22;24661;53.566;9.910;2022-08-04T16:37:00;23.30;99.90
38902;DHT22;24661;53.566;9.910;2022-08-04T16:39:26;23.20;99.90
38902;DHT22;24661;53.566;9.910;2022-08-04T16:41:52;23.20;99.90
38902;DHT22;24661;53.566;9.910;2022-08-04T16:44:32;23.10;99.90
38902;DHT22;24661;53.566;9.910;2022-08-04T16:47:00;23.10;99.90
38902;DHT22;24661;53.566;9.910;2022-08-04T16:49:27;23.10;99.90
38902;DHT22;24661;53.566;9.910;2022-08-04T16:51:54;23.00;99.90
38902;DHT22;24661;53.566;9.910;2022-08-04T16:54:31;23.00;99.90
38902;DHT22;24661;53.566;9.910;2022-08-04T16:56:58;22.90;99.90
38902;DHT22;24661;53.566;9.910;2022-08-04T16:59:24;22.90;99.90
38902;DHT22;24661;53.566;9.910;2022-08-04T17:01:51;22.90;99.90
38902;DHT22;24661;53.566;9.910;2022-08-04T17:04:18;22.90;99.90
38902;DHT22;24661;53.566;9.910;2022-08-04T17:06:58;22.90;99.90
38902;DHT22;24661;53.566;9.910;2022-08-04T17:09:24;23.00;99.90
38902;DHT22;24661;53.566;9.910;2022-08-04T17:11:51;22.90;99.90
38902;DHT22;24661;53.566;9.910;2022-08-04T17:14:22;22.80;99.90
38902;DHT22;24661;53.566;9.910;2022-08-04T17:16:49;22.70;99.90
38902;DHT22;24661;53.566;9.910;2022-08-04T17:19:15;22.70;99.90
38902;DHT22;24661;53.566;9.910;2022-08-04T17:21:42;22.60;99.90
38902;DHT22;24661;53.566;9.910;2022-08-04T17:24:08;22.60;99.90
38902;DHT22;24661;53.566;9.910;2022-08-04T17:26:36;22.60;99.90
38902;DHT22;24661;53.566;9.910;2022-08-04T17:29:02;22.70;99.90
38902;DHT22;24661;53.566;9.910;2022-08-04T17:31:29;22.80;99.90
38902;DHT22;24661;53.566;9.910;2022-08-04T17:34:01;22.80;99.90
38902;DHT22;24661;53.566;9.910;2022-08-04T17:36:31;22.80;99.90
38902;DHT22;24661;53.566;9.910;2022-08-04T17:38:59;22.80;99.90
38902;DHT22;24661;53.566;9.910;2022-08-04T17:41:26;22.80;99.90
38902;DHT22;24661;53.566;9.910;2022-08-04T17:43:55;22.80;99.90
38902;DHT22;24661;53.566;9.910;2022-08-04T17:51:45;23.00;99.90
38902;DHT22;24661;53.566;9.910;2022-08-04T17:54:35;23.00;99.90
38902;DHT22;24661;53.566;9.910;2022-08-04T17:57:00;23.00;99.90
38902;DHT22;24661;53.566;9.910;2022-08-04T17:59:42;23.00;99.90
38902;DHT22;24661;53.566;9.910;2022-08-04T18:02:08;22.90;99.90
38902;DHT22;24661;53.566;9.910;2022-08-04T18:07:12;22.80;99.90
38902;DHT22;24661;53.566;9.910;2022-08-04T18:12:31;22.80;99.90
38902;DHT22;24661;53.566;9.910;2022-08-04T18:14:59;22.70;99.90
38902;DHT22;24661;53.566;9.910;2022-08-04T18:19:57;22.70;99.90
38902;DHT22;24661;53.566;9.910;2022-08-04T18:22:23;22.70;99.90
38902;DHT22;24661;53.566;9.910;2022-08-04T18:24:50;22.60;99.90
38902;DHT22;24661;53.566;9.910;2022-08-04T18:27:18;22.60;99.90
38902;DHT22;24661;53.566;9.910;2022-08-04T18:29:43;22.60;99.90
38902;DHT22;24661;53.566;9.910;2022-08-04T18:32:09;22.60;99.90
38902;DHT22;24661;53.566;9.910;2022-08-04T18:34:35;22.60;99.90
38902;DHT22;24661;53.566;9.910;2022-08-04T18:37:01;22.50;99.90
38902;DHT22;24661;53.566;9.910;2022-08-04T18:39:27;22.50;99.90
38902;DHT22;24661;53.566;9.910;2022-08-04T18:41:55;22.60;99.90
38902;DHT22;24661;53.566;9.910;2022-08-04T18:44:21;22.50;99.90
38902;DHT22;24661;53.566;9.910;2022-08-04T18:46:47;22.50;99.90
38902;DHT22;24661;53.566;9.910;2022-08-04T18:49:23;22.50;99.90
38902;DHT22;24661;53.566;9.910;2022-08-04T18:52:06;22.50;99.90
38902;DHT22;24661;53.566;9.910;2022-08-04T18:54:32;22.40;99.90
38902;DHT22;24661;53.566;9.910;2022-08-04T18:57:01;22.40;99.90
38902;DHT22;24661;53.566;9.910;2022-08-04T18:59:26;22.30;99.90
38902;DHT22;24661;53.566;9.910;2022-08-04T19:01:52;22.30;99.90
38902;DHT22;24661;53.566;9.910;2022-08-04T19:04:19;22.30;99.90
38902;DHT22;24661;53.566;9.910;2022-08-04T19:06:45;22.20;99.90
38902;DHT22;24661;53.566;9.910;2022-08-04T19:09:12;22.20;99.90
38902;DHT22;24661;53.566;9.910;2022-08-04T19:11:38;22.20;99.90
38902;DHT22;24661;53.566;9.910;2022-08-04T19:14:05;22.10;99.90
38902;DHT22;24661;53.566;9.910;2022-08-04T19:16:32;22.00;99.90
38902;DHT22;24661;53.566;9.910;2022-08-04T19:19:01;22.00;99.90
38902;DHT22;24661;53.566;9.910;2022-08-04T19:21:28;21.90;99.90
38902;DHT22;24661;53.566;9.910;2022-08-04T19:23:54;21.90;99.90
38902;DHT22;24661;53.566;9.910;2022-08-04T19:26:21;21.90;99.90
38902;DHT22;24661;53.566;9.910;2022-08-04T19:28:48;21.80;99.90
38902;DHT22;24661;53.566;9.910;2022-08-04T19:31:14;21.70;99.90
38902;DHT22;24661;53.566;9.910;2022-08-04T19:33:41;21.70;99.90
38902;DHT22;24661;53.566;9.910;2022-08-04T19:36:08;21.70;99.90
38902;DHT22;24661;53.566;9.910;2022-08-04T19:38:37;21.70;99.90
38902;DHT22;24661;53.566;9.910;2022-08-04T19:41:03;21.70;99.90
38902;DHT22;24661;53.566;9.910;2022-08-04T19:43:31;21.70;99.90
38902;DHT22;24661;53.566;9.910;2022-08-04T19:45:58;21.60;99.90
38902;DHT22;24661;53.566;9.910;2022-08-04T19:48:30;21.60;99.90
38902;DHT22;24661;53.566;9.910;2022-08-04T19:50:56;21.60;99.90
38902;DHT22;24661;53.566;9.910;2022-08-04T19:53:21;21.60;99.90